sensor_id;sensor_type;location;lat;lon;timestamp;P1;durP1;ratioP1;P2;durP2;ratioP2
47778;SDS011;33538;48.432;11.350;2023-04-12T00:00:24;5.55;;;2.50;;
47778;SDS011;33538;48.432;11.350;2023-04-12T00:02:51;8.73;;;2.85;;
47778;SDS011;33538;48.432;11.350;2023-04-12T00:05:19;2.65;;;1.98;;
47778;SDS011;33538;48.432;11.350;2023-04-12T00:07:47;3.85;;;2.08;;
47778;SDS011;33538;48.432;11.350;2023-04-12T00:10:13;5.63;;;2.25;;
47778;SDS011;33538;48.432;11.350;2023-04-12T00:12:40;7.65;;;1.90;;
47778;SDS011;33538;48.432;11.350;2023-04-12T00:15:07;3.33;;;2.03;;
47778;SDS011;33538;48.432;11.350;2023-04-12T00:17:34;3.20;;;1.88;;
47778;SDS011;33538;48.432;11.350;2023-04-12T00:20:01;7.00;;;2.20;;
47778;SDS011;33538;48.432;11.350;2023-04-12T00:22:30;4.40;;;2.13;;
47778;SDS011;33538;48.432;11.350;2023-04-12T00:24:56;3.33;;;2.13;;
47778;SDS011;33538;48.432;11.350;2023-04-12T00:27:23;3.05;;;1.85;;
47778;SDS011;33538;48.432;11.350;2023-04-12T00:29:50;3.05;;;1.75;;
47778;SDS011;33538;48.432;11.350;2023-04-12T00:32:17;2.70;;;2.08;;
47778;SDS011;33538;48.432;11.350;2023-04-12T00:34:43;3.72;;;1.95;;
47778;SDS011;33538;48.432;11.350;2023-04-12T00:37:10;4.47;;;1.90;;
47778;SDS011;33538;48.432;11.350;2023-04-12T00:39:38;1.88;;;1.55;;
47778;SDS011;33538;48.432;11.350;2023-04-12T00:42:05;3.85;;;2.00;;
47778;SDS011;33538;48.432;11.350;2023-04-12T00:44:32;5.40;;;1.67;;
47778;SDS011;33538;48.432;11.350;2023-04-12T00:46:59;4.43;;;2.20;;
47778;SDS011;33538;48.432;11.350;2023-04-12T00:49:27;3.30;;;1.67;;
47778;SDS011;33538;48.432;11.350;2023-04-12T00:51:54;2.83;;;1.63;;
47778;SDS011;33538;48.432;11.350;2023-04-12T00:54:23;5.10;;;2.05;;
47778;SDS011;33538;48.432;11.350;2023-04-12T00:56:51;3.08;;;2.47;;
47778;SDS011;33538;48.432;11.350;2023-04-12T00:59:18;4.43;;;1.80;;
47778;SDS011;33538;48.432;11.350;2023-04-12T01:01:44;2.58;;;1.80;;
47778;SDS011;33538;48.432;11.350;2023-04-12T01:04:11;4.07;;;1.83;;
47778;SDS011;33538;48.432;11.350;2023-04-12T01:06:40;5.90;;;2.00;;
47778;SDS011;33538;48.432;11.350;2023-04-12T01:09:19;3.80;;;1.60;;
47778;SDS011;33538;48.432;11.350;2023-04-12T01:11:55;5.28;;;2.08;;
47778;SDS011;33538;48.432;11.350;2023-04-12T01:14:34;2.65;;;1.88;;
47778;SDS011;33538;48.432;11.350;2023-04-12T01:17:08;5.28;;;1.65;;
47778;SDS011;33538;48.432;11.350;2023-04-12T01:19:45;5.15;;;1.95;;
47778;SDS011;33538;48.432;11.350;2023-04-12T01:22:24;3.70;;;1.77;;
47778;SDS011;33538;48.432;11.350;2023-04-12T01:25:03;4.85;;;2.13;;
47778;SDS011;33538;48.432;11.350;2023-04-12T01:27:45;3.35;;;2.00;;
47778;SDS011;33538;48.432;11.350;2023-04-12T01:30:15;4.47;;;2.22;;
47778;SDS011;33538;48.432;11.350;2023-04-12T01:32:45;6.28;;;1.90;;
47778;SDS011;33538;48.432;11.350;2023-04-12T01:35:15;3.22;;;1.67;;
47778;SDS011;33538;48.432;11.350;2023-04-12T01:37:44;3.42;;;1.80;;
47778;SDS011;33538;48.432;11.350;2023-04-12T01:40:11;2.53;;;1.60;;
47778;SDS011;33538;48.432;11.350;2023-04-12T01:42:39;5.30;;;1.95;;
47778;SDS011;33538;48.432;11.350;2023-04-12T01:45:07;3.70;;;1.63;;
47778;SDS011;33538;48.432;11.350;2023-04-12T01:47:35;3.35;;;2.15;;
47778;SDS011;33538;48.432;11.350;2023-04-12T01:50:04;3.60;;;1.95;;
47778;SDS011;33538;48.432;11.350;2023-04-12T01:52:41;2.38;;;1.42;;
47778;SDS011;33538;48.432;11.350;2023-04-12T01:55:17;3.03;;;2.05;;
47778;SDS011;33538;48.432;11.350;2023-04-12T01:57:46;3.33;;;1.85;;
47778;SDS011;33538;48.432;11.350;2023-04-12T02:00:17;4.32;;;2.20;;
47778;SDS011;33538;48.432;11.350;2023-04-12T02:02:45;2.63;;;1.60;;
47778;SDS011;33538;48.432;11.350;2023-04-12T02:05:12;6.05;;;2.78;;
47778;SDS011;33538;48.432;11.350;2023-04-12T02:07:40;2.55;;;1.63;;
47778;SDS011;33538;48.432;11.350;2023-04-12T02:10:09;2.58;;;1.80;;
47778;SDS011;33538;48.432;11.350;2023-04-12T02:12:38;4.40;;;1.88;;
47778;SDS011;33538;48.432;11.350;2023-04-12T02:15:05;2.92;;;1.73;;
47778;SDS011;33538;48.432;11.350;2023-04-12T02:17:34;6.38;;;2.03;;
47778;SDS011;33538;48.432;11.350;2023-04-12T02:20:01;3.30;;;1.65;;
47778;SDS011;33538;48.432;11.350;2023-04-12T02:22:29;2.58;;;1.40;;
47778;SDS011;33538;48.432;11.350;2023-04-12T02:24:55;2.80;;;1.83;;
47778;SDS011;33538;48.432;11.350;2023-04-12T02:27:22;2.60;;;1.63;;
47778;SDS011;33538;48.432;11.350;2023-04-12T02:29:49;2.38;;;1.60;;
47778;SDS011;33538;48.432;11.350;2023-04-12T02:32:15;3.55;;;1.65;;
47778;SDS011;33538;48.432;11.350;2023-04-12T02:34:44;2.85;;;1.70;;
47778;SDS011;33538;48.432;11.350;2023-04-12T02:37:10;2.47;;;1.40;;
47778;SDS011;33538;48.432;11.350;2023-04-12T02:39:37;4.97;;;1.80;;
47778;SDS011;33538;48.432;11.350;2023-04-12T02:42:04;4.00;;;1.40;;
47778;SDS011;33538;48.432;11.350;2023-04-12T02:44:32;2.65;;;1.73;;
47778;SDS011;33538;48.432;11.350;2023-04-12T02:46:59;2.10;;;1.48;;
47778;SDS011;33538;48.432;11.350;2023-04-12T02:49:25;3.00;;;1.50;;
47778;SDS011;33538;48.432;11.350;2023-04-12T02:51:54;5.32;;;1.85;;
47778;SDS011;33538;48.432;11.350;2023-04-12T02:54:20;3.20;;;1.63;;
47778;SDS011;33538;48.432;11.350;2023-04-12T02:56:47;2.10;;;1.33;;
47778;SDS011;33538;48.432;11.350;2023-04-12T02:59:14;3.42;;;1.48;;
47778;SDS011;33538;48.432;11.350;2023-04-12T03:01:41;3.00;;;1.63;;
47778;SDS011;33538;48.432;11.350;2023-04-12T03:04:08;4.40;;;1.98;;
47778;SDS011;33538;48.432;11.350;2023-04-12T03:06:34;1.75;;;1.52;;
47778;SDS011;33538;48.432;11.350;2023-04-12T03:09:03;5.22;;;1.60;;
47778;SDS011;33538;48.432;11.350;2023-04-12T03:11:29;1.77;;;1.40;;
47778;SDS011;33538;48.432;11.350;2023-04-12T03:13:56;3.22;;;1.50;;
47778;SDS011;33538;48.432;11.350;2023-04-12T03:16:24;1.52;;;1.33;;
47778;SDS011;33538;48.432;11.350;2023-04-12T03:18:51;3.05;;;1.00;;
47778;SDS011;33538;48.432;11.350;2023-04-12T03:21:18;1.90;;;1.60;;
47778;SDS011;33538;48.432;11.350;2023-04-12T03:23:45;2.65;;;1.50;;
47778;SDS011;33538;48.432;11.350;2023-04-12T03:26:13;1.95;;;1.30;;
47778;SDS011;33538;48.432;11.350;2023-04-12T03:28:40;1.52;;;1.08;;
47778;SDS011;33538;48.432;11.350;2023-04-12T03:31:06;3.33;;;1.40;;
47778;SDS011;33538;48.432;11.350;2023-04-12T03:33:33;2.22;;;1.27;;
47778;SDS011;33538;48.432;11.350;2023-04-12T03:36:00;5.40;;;1.60;;
47778;SDS011;33538;48.432;11.350;2023-04-12T03:38:27;3.63;;;1.48;;
47778;SDS011;33538;48.432;11.350;2023-04-12T03:40:54;2.10;;;1.20;;
47778;SDS011;33538;48.432;11.350;2023-04-12T03:43:22;1.50;;;1.20;;
47778;SDS011;33538;48.432;11.350;2023-04-12T03:45:49;5.38;;;1.40;;
47778;SDS011;33538;48.432;11.350;2023-04-12T03:48:15;2.25;;;1.13;;
47778;SDS011;33538;48.432;11.350;2023-04-12T03:50:42;3.05;;;1.40;;
47778;SDS011;33538;48.432;11.350;2023-04-12T03:53:09;1.67;;;1.25;;
47778;SDS011;33538;48.432;11.350;2023-04-12T03:55:36;2.17;;;1.45;;
47778;SDS011;33538;48.432;11.350;2023-04-12T03:58:02;1.60;;;0.90;;
47778;SDS011;33538;48.432;11.350;2023-04-12T04:00:31;2.17;;;1.02;;
47778;SDS011;33538;48.432;11.350;2023-04-12T04:02:58;3.15;;;1.20;;
47778;SDS011;33538;48.432;11.350;2023-04-12T04:05:25;1.27;;;1.02;;
47778;SDS011;33538;48.432;11.350;2023-04-12T04:07:52;2.58;;;1.05;;
47778;SDS011;33538;48.432;11.350;2023-04-12T04:10:18;1.60;;;1.10;;
47778;SDS011;33538;48.432;11.350;2023-04-12T04:12:45;1.17;;;0.90;;
47778;SDS011;33538;48.432;11.350;2023-04-12T04:15:13;2.10;;;1.00;;
47778;SDS011;33538;48.432;11.350;2023-04-12T04:17:41;3.63;;;1.15;;
47778;SDS011;33538;48.432;11.350;2023-04-12T04:20:08;1.05;;;0.95;;
47778;SDS011;33538;48.432;11.350;2023-04-12T04:22:35;2.30;;;1.30;;
47778;SDS011;33538;48.432;11.350;2023-04-12T04:25:02;1.63;;;1.23;;
47778;SDS011;33538;48.432;11.350;2023-04-12T04:27:30;2.30;;;1.05;;
47778;SDS011;33538;48.432;11.350;2023-04-12T04:29:57;2.47;;;1.20;;
47778;SDS011;33538;48.432;11.350;2023-04-12T04:32:23;3.40;;;1.10;;
47778;SDS011;33538;48.432;11.350;2023-04-12T04:34:51;1.63;;;1.02;;
47778;SDS011;33538;48.432;11.350;2023-04-12T04:37:21;3.03;;;1.40;;
47778;SDS011;33538;48.432;11.350;2023-04-12T04:39:47;1.23;;;1.10;;
47778;SDS011;33538;48.432;11.350;2023-04-12T04:42:14;1.83;;;1.08;;
47778;SDS011;33538;48.432;11.350;2023-04-12T04:44:41;3.47;;;1.38;;
47778;SDS011;33538;48.432;11.350;2023-04-12T04:47:08;1.25;;;1.00;;
47778;SDS011;33538;48.432;11.350;2023-04-12T04:49:35;5.80;;;1.35;;
47778;SDS011;33538;48.432;11.350;2023-04-12T04:52:03;3.25;;;1.20;;
47778;SDS011;33538;48.432;11.350;2023-04-12T04:54:30;1.50;;;1.05;;
47778;SDS011;33538;48.432;11.350;2023-04-12T04:56:57;1.48;;;1.00;;
47778;SDS011;33538;48.432;11.350;2023-04-12T04:59:24;1.98;;;1.08;;
47778;SDS011;33538;48.432;11.350;2023-04-12T05:01:50;3.90;;;1.20;;
47778;SDS011;33538;48.432;11.350;2023-04-12T05:04:17;4.25;;;1.00;;
47778;SDS011;33538;48.432;11.350;2023-04-12T05:06:44;2.42;;;1.30;;
47778;SDS011;33538;48.432;11.350;2023-04-12T05:09:13;2.45;;;1.23;;
47778;SDS011;33538;48.432;11.350;2023-04-12T05:11:39;2.47;;;1.33;;
47778;SDS011;33538;48.432;11.350;2023-04-12T05:14:06;2.55;;;1.00;;
47778;SDS011;33538;48.432;11.350;2023-04-12T05:16:34;1.80;;;1.00;;
47778;SDS011;33538;48.432;11.350;2023-04-12T05:19:01;2.53;;;1.20;;
47778;SDS011;33538;48.432;11.350;2023-04-12T05:21:28;2.85;;;0.95;;
47778;SDS011;33538;48.432;11.350;2023-04-12T05:23:54;3.72;;;1.27;;
47778;SDS011;33538;48.432;11.350;2023-04-12T05:26:23;1.52;;;1.13;;
47778;SDS011;33538;48.432;11.350;2023-04-12T05:28:49;1.58;;;1.00;;
47778;SDS011;33538;48.432;11.350;2023-04-12T05:31:16;1.73;;;1.45;;
47778;SDS011;33538;48.432;11.350;2023-04-12T05:33:43;7.40;;;1.48;;
47778;SDS011;33538;48.432;11.350;2023-04-12T05:36:10;2.40;;;1.08;;
47778;SDS011;33538;48.432;11.350;2023-04-12T05:38:37;2.03;;;1.13;;
47778;SDS011;33538;48.432;11.350;2023-04-12T05:41:04;2.65;;;1.00;;
47778;SDS011;33538;48.432;11.350;2023-04-12T05:43:32;1.20;;;0.80;;
47778;SDS011;33538;48.432;11.350;2023-04-12T05:45:59;1.13;;;0.93;;
47778;SDS011;33538;48.432;11.350;2023-04-12T05:48:26;4.97;;;1.45;;
47778;SDS011;33538;48.432;11.350;2023-04-12T05:50:53;7.43;;;2.92;;
47778;SDS011;33538;48.432;11.350;2023-04-12T05:53:20;4.95;;;2.15;;
47778;SDS011;33538;48.432;11.350;2023-04-12T05:55:47;5.05;;;1.92;;
47778;SDS011;33538;48.432;11.350;2023-04-12T05:58:13;3.58;;;1.08;;
47778;SDS011;33538;48.432;11.350;2023-04-12T06:00:42;2.10;;;0.80;;
47778;SDS011;33538;48.432;11.350;2023-04-12T06:03:09;1.00;;;0.90;;
47778;SDS011;33538;48.432;11.350;2023-04-12T06:05:36;3.20;;;0.93;;
47778;SDS011;33538;48.432;11.350;2023-04-12T06:08:03;2.55;;;1.20;;
47778;SDS011;33538;48.432;11.350;2023-04-12T06:10:30;2.97;;;1.00;;
47778;SDS011;33538;48.432;11.350;2023-04-12T06:12:57;2.58;;;1.02;;
47778;SDS011;33538;48.432;11.350;2023-04-12T06:15:24;1.88;;;1.55;;
47778;SDS011;33538;48.432;11.350;2023-04-12T06:17:52;2.10;;;1.13;;
47778;SDS011;33538;48.432;11.350;2023-04-12T06:20:19;1.88;;;1.13;;
47778;SDS011;33538;48.432;11.350;2023-04-12T06:22:46;1.98;;;0.95;;
47778;SDS011;33538;48.432;11.350;2023-04-12T06:25:12;1.65;;;1.10;;
47778;SDS011;33538;48.432;11.350;2023-04-12T06:27:39;1.08;;;0.98;;
47778;SDS011;33538;48.432;11.350;2023-04-12T06:30:06;1.50;;;0.90;;
47778;SDS011;33538;48.432;11.350;2023-04-12T06:32:34;1.88;;;1.20;;
47778;SDS011;33538;48.432;11.350;2023-04-12T06:35:02;1.83;;;1.10;;
47778;SDS011;33538;48.432;11.350;2023-04-12T06:37:29;2.72;;;0.90;;
47778;SDS011;33538;48.432;11.350;2023-04-12T06:39:55;0.93;;;0.60;;
47778;SDS011;33538;48.432;11.350;2023-04-12T06:42:22;2.80;;;0.93;;
47778;SDS011;33538;48.432;11.350;2023-04-12T06:44:49;0.93;;;0.82;;
47778;SDS011;33538;48.432;11.350;2023-04-12T06:47:16;2.35;;;1.23;;
47778;SDS011;33538;48.432;11.350;2023-04-12T06:49:43;1.45;;;0.88;;
47778;SDS011;33538;48.432;11.350;2023-04-12T06:52:11;3.42;;;1.20;;
47778;SDS011;33538;48.432;11.350;2023-04-12T06:54:38;2.10;;;0.90;;
47778;SDS011;33538;48.432;11.350;2023-04-12T06:57:07;1.38;;;0.93;;
47778;SDS011;33538;48.432;11.350;2023-04-12T06:59:34;3.38;;;1.00;;
47778;SDS011;33538;48.432;11.350;2023-04-12T07:02:01;5.25;;;1.30;;
47778;SDS011;33538;48.432;11.350;2023-04-12T07:04:27;0.88;;;0.82;;
47778;SDS011;33538;48.432;11.350;2023-04-12T07:06:54;1.50;;;0.95;;
47778;SDS011;33538;48.432;11.350;2023-04-12T07:09:22;1.67;;;0.90;;
47778;SDS011;33538;48.432;11.350;2023-04-12T07:11:49;2.38;;;1.17;;
47778;SDS011;33538;48.432;11.350;2023-04-12T07:14:16;1.55;;;1.20;;
47778;SDS011;33538;48.432;11.350;2023-04-12T07:16:43;2.67;;;1.15;;
47778;SDS011;33538;48.432;11.350;2023-04-12T07:19:09;3.60;;;1.73;;
47778;SDS011;33538;48.432;11.350;2023-04-12T07:21:36;2.58;;;1.17;;
47778;SDS011;33538;48.432;11.350;2023-04-12T07:24:03;2.67;;;1.13;;
47778;SDS011;33538;48.432;11.350;2023-04-12T07:26:31;4.38;;;1.15;;
47778;SDS011;33538;48.432;11.350;2023-04-12T07:28:58;4.07;;;1.30;;
47778;SDS011;33538;48.432;11.350;2023-04-12T07:31:25;2.15;;;1.30;;
47778;SDS011;33538;48.432;11.350;2023-04-12T07:33:52;1.90;;;1.15;;
47778;SDS011;33538;48.432;11.350;2023-04-12T07:36:19;2.47;;;1.38;;
47778;SDS011;33538;48.432;11.350;2023-04-12T07:38:46;1.35;;;1.13;;
47778;SDS011;33538;48.432;11.350;2023-04-12T07:41:12;1.92;;;1.27;;
47778;SDS011;33538;48.432;11.350;2023-04-12T07:43:40;0.80;;;0.80;;
47778;SDS011;33538;48.432;11.350;2023-04-12T07:46:07;1.17;;;0.80;;
47778;SDS011;33538;48.432;11.350;2023-04-12T07:48:34;2.92;;;1.35;;
47778;SDS011;33538;48.432;11.350;2023-04-12T07:51:01;3.28;;;1.25;;
47778;SDS011;33538;48.432;11.350;2023-04-12T07:53:28;3.80;;;1.50;;
47778;SDS011;33538;48.432;11.350;2023-04-12T07:55:54;2.65;;;1.40;;
47778;SDS011;33538;48.432;11.350;2023-04-12T07:58:22;2.63;;;1.75;;
47778;SDS011;33538;48.432;11.350;2023-04-12T08:00:51;2.20;;;1.60;;
47778;SDS011;33538;48.432;11.350;2023-04-12T08:03:19;5.00;;;1.98;;
47778;SDS011;33538;48.432;11.350;2023-04-12T08:05:45;3.83;;;2.00;;
47778;SDS011;33538;48.432;11.350;2023-04-12T08:08:15;3.90;;;2.72;;
47778;SDS011;33538;48.432;11.350;2023-04-12T08:10:42;3.67;;;1.85;;
47778;SDS011;33538;48.432;11.350;2023-04-12T08:13:08;2.38;;;1.65;;
47778;SDS011;33538;48.432;11.350;2023-04-12T08:15:35;2.17;;;1.58;;
47778;SDS011;33538;48.432;11.350;2023-04-12T08:18:03;3.50;;;1.92;;
47778;SDS011;33538;48.432;11.350;2023-04-12T08:20:30;3.47;;;2.05;;
47778;SDS011;33538;48.432;11.350;2023-04-12T08:22:57;3.22;;;1.95;;
47778;SDS011;33538;48.432;11.350;2023-04-12T08:25:24;2.92;;;1.48;;
47778;SDS011;33538;48.432;11.350;2023-04-12T08:27:51;5.47;;;2.13;;
47778;SDS011;33538;48.432;11.350;2023-04-12T08:30:18;4.45;;;1.73;;
47778;SDS011;33538;48.432;11.350;2023-04-12T08:32:45;3.35;;;1.83;;
47778;SDS011;33538;48.432;11.350;2023-04-12T08:35:13;1.95;;;1.35;;
47778;SDS011;33538;48.432;11.350;2023-04-12T08:37:40;3.95;;;1.80;;
47778;SDS011;33538;48.432;11.350;2023-04-12T08:40:07;2.55;;;1.23;;
47778;SDS011;33538;48.432;11.350;2023-04-12T08:42:34;3.10;;;2.05;;
47778;SDS011;33538;48.432;11.350;2023-04-12T08:45:04;4.47;;;2.03;;
47778;SDS011;33538;48.432;11.350;2023-04-12T08:47:32;5.53;;;1.92;;
47778;SDS011;33538;48.432;11.350;2023-04-12T08:50:02;8.18;;;3.03;;
47778;SDS011;33538;48.432;11.350;2023-04-12T08:52:30;3.15;;;1.48;;
47778;SDS011;33538;48.432;11.350;2023-04-12T08:55:00;2.55;;;1.42;;
47778;SDS011;33538;48.432;11.350;2023-04-12T08:57:27;3.22;;;1.85;;
47778;SDS011;33538;48.432;11.350;2023-04-12T08:59:57;2.70;;;1.67;;
47778;SDS011;33538;48.432;11.350;2023-04-12T09:02:25;3.95;;;2.17;;
47778;SDS011;33538;48.432;11.350;2023-04-12T09:04:52;2.92;;;1.65;;
47778;SDS011;33538;48.432;11.350;2023-04-12T09:07:20;5.18;;;1.70;;
47778;SDS011;33538;48.432;11.350;2023-04-12T09:09:49;1.98;;;1.63;;
47778;SDS011;33538;48.432;11.350;2023-04-12T09:12:16;6.05;;;2.00;;
47778;SDS011;33538;48.432;11.350;2023-04-12T09:14:43;3.75;;;1.80;;
47778;SDS011;33538;48.432;11.350;2023-04-12T09:17:22;6.07;;;1.48;;
47778;SDS011;33538;48.432;11.350;2023-04-12T09:19:50;3.80;;;1.40;;
47778;SDS011;33538;48.432;11.350;2023-04-12T09:22:17;2.15;;;1.35;;
47778;SDS011;33538;48.432;11.350;2023-04-12T09:24:44;2.67;;;1.70;;
47778;SDS011;33538;48.432;11.350;2023-04-12T09:27:13;2.30;;;1.63;;
47778;SDS011;33538;48.432;11.350;2023-04-12T09:29:40;3.10;;;1.67;;
47778;SDS011;33538;48.432;11.350;2023-04-12T09:32:07;2.50;;;1.60;;
47778;SDS011;33538;48.432;11.350;2023-04-12T09:34:34;2.08;;;1.27;;
47778;SDS011;33538;48.432;11.350;2023-04-12T09:37:11;3.65;;;1.90;;
47778;SDS011;33538;48.432;11.350;2023-04-12T09:39:38;3.35;;;1.75;;
47778;SDS011;33538;48.432;11.350;2023-04-12T09:42:06;3.13;;;2.05;;
47778;SDS011;33538;48.432;11.350;2023-04-12T09:44:56;3.83;;;1.65;;
47778;SDS011;33538;48.432;11.350;2023-04-12T09:47:25;3.58;;;1.92;;
47778;SDS011;33538;48.432;11.350;2023-04-12T09:50:02;3.38;;;1.98;;
47778;SDS011;33538;48.432;11.350;2023-04-12T09:52:34;7.28;;;2.30;;
47778;SDS011;33538;48.432;11.350;2023-04-12T09:55:01;2.55;;;1.55;;
47778;SDS011;33538;48.432;11.350;2023-04-12T09:57:30;4.10;;;2.10;;
47778;SDS011;33538;48.432;11.350;2023-04-12T09:59:58;3.67;;;2.40;;
47778;SDS011;33538;48.432;11.350;2023-04-12T10:02:28;2.67;;;1.52;;
47778;SDS011;33538;48.432;11.350;2023-04-12T10:04:56;3.75;;;1.83;;
47778;SDS011;33538;48.432;11.350;2023-04-12T10:07:23;3.35;;;1.80;;
47778;SDS011;33538;48.432;11.350;2023-04-12T10:09:51;4.10;;;2.13;;
47778;SDS011;33538;48.432;11.350;2023-04-12T10:12:18;3.63;;;1.92;;
47778;SDS011;33538;48.432;11.350;2023-04-12T10:14:45;5.40;;;2.10;;
47778;SDS011;33538;48.432;11.350;2023-04-12T10:17:13;2.10;;;1.80;;
47778;SDS011;33538;48.432;11.350;2023-04-12T10:19:41;2.00;;;1.55;;
47778;SDS011;33538;48.432;11.350;2023-04-12T10:22:08;3.40;;;1.60;;
47778;SDS011;33538;48.432;11.350;2023-04-12T10:24:36;3.08;;;1.98;;
47778;SDS011;33538;48.432;11.350;2023-04-12T10:27:04;4.32;;;2.30;;
47778;SDS011;33538;48.432;11.350;2023-04-12T10:29:31;3.58;;;1.85;;
47778;SDS011;33538;48.432;11.350;2023-04-12T10:34:48;2.88;;;1.83;;
47778;SDS011;33538;48.432;11.350;2023-04-12T10:37:15;1.73;;;1.40;;
47778;SDS011;33538;48.432;11.350;2023-04-12T10:39:43;1.92;;;1.63;;
47778;SDS011;33538;48.432;11.350;2023-04-12T10:42:17;2.78;;;1.65;;
47778;SDS011;33538;48.432;11.350;2023-04-12T10:44:48;1.92;;;1.52;;
47778;SDS011;33538;48.432;11.350;2023-04-12T10:47:24;5.97;;;1.85;;
47778;SDS011;33538;48.432;11.350;2023-04-12T10:50:23;6.88;;;2.20;;
47778;SDS011;33538;48.432;11.350;2023-04-12T10:55:48;5.57;;;2.17;;
47778;SDS011;33538;48.432;11.350;2023-04-12T11:01:15;2.95;;;1.80;;
47778;SDS011;33538;48.432;11.350;2023-04-12T11:06:39;1.88;;;1.30;;
47778;SDS011;33538;48.432;11.350;2023-04-12T11:09:21;3.22;;;1.70;;
47778;SDS011;33538;48.432;11.350;2023-04-12T11:11:51;2.40;;;1.58;;
47778;SDS011;33538;48.432;11.350;2023-04-12T11:14:24;4.97;;;2.20;;
47778;SDS011;33538;48.432;11.350;2023-04-12T11:19:49;2.75;;;1.75;;
47778;SDS011;33538;48.432;11.350;2023-04-12T11:22:18;3.33;;;2.08;;
47778;SDS011;33538;48.432;11.350;2023-04-12T11:24:47;3.95;;;2.20;;
47778;SDS011;33538;48.432;11.350;2023-04-12T11:27:15;3.70;;;2.22;;
47778;SDS011;33538;48.432;11.350;2023-04-12T11:29:44;3.05;;;1.65;;
47778;SDS011;33538;48.432;11.350;2023-04-12T11:32:13;2.72;;;1.92;;
47778;SDS011;33538;48.432;11.350;2023-04-12T11:34:41;2.90;;;1.80;;
47778;SDS011;33538;48.432;11.350;2023-04-12T11:37:09;2.40;;;1.98;;
47778;SDS011;33538;48.432;11.350;2023-04-12T11:39:37;2.70;;;1.90;;
47778;SDS011;33538;48.432;11.350;2023-04-12T11:42:05;4.22;;;2.78;;
47778;SDS011;33538;48.432;11.350;2023-04-12T11:44:38;3.78;;;2.55;;
47778;SDS011;33538;48.432;11.350;2023-04-12T11:47:21;3.13;;;1.67;;
47778;SDS011;33538;48.432;11.350;2023-04-12T11:49:49;2.28;;;1.60;;
47778;SDS011;33538;48.432;11.350;2023-04-12T11:52:19;2.90;;;2.30;;
47778;SDS011;33538;48.432;11.350;2023-04-12T11:54:47;6.53;;;1.95;;
47778;SDS011;33538;48.432;11.350;2023-04-12T11:57:15;2.22;;;1.73;;
47778;SDS011;33538;48.432;11.350;2023-04-12T11:59:43;3.10;;;1.98;;
47778;SDS011;33538;48.432;11.350;2023-04-12T12:02:11;4.20;;;1.98;;
47778;SDS011;33538;48.432;11.350;2023-04-12T12:04:48;3.75;;;2.20;;
47778;SDS011;33538;48.432;11.350;2023-04-12T12:07:16;3.45;;;2.05;;
47778;SDS011;33538;48.432;11.350;2023-04-12T12:09:46;4.57;;;2.35;;
47778;SDS011;33538;48.432;11.350;2023-04-12T12:12:15;3.33;;;1.95;;
47778;SDS011;33538;48.432;11.350;2023-04-12T12:14:43;4.68;;;2.30;;
47778;SDS011;33538;48.432;11.350;2023-04-12T12:17:11;4.38;;;2.30;;
47778;SDS011;33538;48.432;11.350;2023-04-12T12:19:40;3.85;;;2.50;;
47778;SDS011;33538;48.432;11.350;2023-04-12T12:22:13;3.33;;;2.08;;
47778;SDS011;33538;48.432;11.350;2023-04-12T12:24:46;2.65;;;2.00;;
47778;SDS011;33538;48.432;11.350;2023-04-12T12:27:19;3.85;;;2.55;;
47778;SDS011;33538;48.432;11.350;2023-04-12T12:29:48;4.88;;;2.05;;
47778;SDS011;33538;48.432;11.350;2023-04-12T12:32:16;3.55;;;2.33;;
47778;SDS011;33538;48.432;11.350;2023-04-12T12:34:51;2.90;;;2.33;;
47778;SDS011;33538;48.432;11.350;2023-04-12T12:37:19;4.03;;;2.10;;
47778;SDS011;33538;48.432;11.350;2023-04-12T12:40:05;4.93;;;2.13;;
47778;SDS011;33538;48.432;11.350;2023-04-12T12:42:33;2.75;;;1.98;;
47778;SDS011;33538;48.432;11.350;2023-04-12T12:45:00;5.13;;;1.88;;
47778;SDS011;33538;48.432;11.350;2023-04-12T12:47:27;3.40;;;2.30;;
47778;SDS011;33538;48.432;11.350;2023-04-12T12:49:53;6.60;;;2.42;;
47778;SDS011;33538;48.432;11.350;2023-04-12T12:52:20;5.60;;;2.80;;
47778;SDS011;33538;48.432;11.350;2023-04-12T12:54:47;3.20;;;2.22;;
47778;SDS011;33538;48.432;11.350;2023-04-12T12:57:15;2.97;;;1.98;;
47778;SDS011;33538;48.432;11.350;2023-04-12T12:59:42;5.18;;;2.45;;
47778;SDS011;33538;48.432;11.350;2023-04-12T13:02:09;3.33;;;2.10;;
47778;SDS011;33538;48.432;11.350;2023-04-12T13:04:35;3.78;;;2.13;;
47778;SDS011;33538;48.432;11.350;2023-04-12T13:07:03;3.97;;;2.20;;
47778;SDS011;33538;48.432;11.350;2023-04-12T13:09:30;4.78;;;2.00;;
47778;SDS011;33538;48.432;11.350;2023-04-12T13:11:57;3.15;;;1.65;;
47778;SDS011;33538;48.432;11.350;2023-04-12T13:14:26;2.83;;;1.85;;
47778;SDS011;33538;48.432;11.350;2023-04-12T13:16:53;2.35;;;1.50;;
47778;SDS011;33538;48.432;11.350;2023-04-12T13:19:19;6.10;;;1.60;;
47778;SDS011;33538;48.432;11.350;2023-04-12T13:21:46;2.38;;;1.35;;
47778;SDS011;33538;48.432;11.350;2023-04-12T13:24:14;3.78;;;1.65;;
47778;SDS011;33538;48.432;11.350;2023-04-12T13:26:41;1.77;;;1.15;;
47778;SDS011;33538;48.432;11.350;2023-04-12T13:29:08;3.80;;;1.55;;
47778;SDS011;33538;48.432;11.350;2023-04-12T13:31:36;3.42;;;1.52;;
47778;SDS011;33538;48.432;11.350;2023-04-12T13:34:02;2.50;;;0.95;;
47778;SDS011;33538;48.432;11.350;2023-04-12T13:36:29;1.02;;;0.93;;
47778;SDS011;33538;48.432;11.350;2023-04-12T13:38:56;6.30;;;0.98;;
47778;SDS011;33538;48.432;11.350;2023-04-12T13:41:24;1.67;;;1.05;;
47778;SDS011;33538;48.432;11.350;2023-04-12T13:43:51;2.00;;;1.35;;
47778;SDS011;33538;48.432;11.350;2023-04-12T13:46:18;2.35;;;1.40;;
47778;SDS011;33538;48.432;11.350;2023-04-12T13:48:46;1.92;;;1.25;;
47778;SDS011;33538;48.432;11.350;2023-04-12T13:51:13;1.10;;;0.85;;
47778;SDS011;33538;48.432;11.350;2023-04-12T13:53:40;2.28;;;1.13;;
47778;SDS011;33538;48.432;11.350;2023-04-12T13:56:06;1.85;;;1.05;;
47778;SDS011;33538;48.432;11.350;2023-04-12T13:58:33;3.53;;;1.20;;
47778;SDS011;33538;48.432;11.350;2023-04-12T14:01:00;1.67;;;0.90;;
47778;SDS011;33538;48.432;11.350;2023-04-12T14:03:27;0.85;;;0.55;;
47778;SDS011;33538;48.432;11.350;2023-04-12T14:05:55;1.40;;;0.95;;
47778;SDS011;33538;48.432;11.350;2023-04-12T14:08:22;1.30;;;0.80;;
47778;SDS011;33538;48.432;11.350;2023-04-12T14:10:49;0.85;;;0.70;;
47778;SDS011;33538;48.432;11.350;2023-04-12T14:13:16;1.98;;;0.63;;
47778;SDS011;33538;48.432;11.350;2023-04-12T14:15:42;0.93;;;0.82;;
47778;SDS011;33538;48.432;11.350;2023-04-12T14:18:09;2.35;;;0.70;;
47778;SDS011;33538;48.432;11.350;2023-04-12T14:20:36;0.90;;;0.73;;
47778;SDS011;33538;48.432;11.350;2023-04-12T14:23:04;1.08;;;0.82;;
47778;SDS011;33538;48.432;11.350;2023-04-12T14:25:33;2.05;;;1.10;;
47778;SDS011;33538;48.432;11.350;2023-04-12T14:28:00;6.07;;;0.90;;
47778;SDS011;33538;48.432;11.350;2023-04-12T14:30:27;2.92;;;0.80;;
47778;SDS011;33538;48.432;11.350;2023-04-12T14:32:54;1.60;;;0.63;;
47778;SDS011;33538;48.432;11.350;2023-04-12T14:35:21;2.63;;;0.70;;
47778;SDS011;33538;48.432;11.350;2023-04-12T14:37:47;1.00;;;0.70;;
47778;SDS011;33538;48.432;11.350;2023-04-12T14:40:16;0.90;;;0.50;;
47778;SDS011;33538;48.432;11.350;2023-04-12T14:42:44;0.47;;;0.47;;
47778;SDS011;33538;48.432;11.350;2023-04-12T14:45:10;0.47;;;0.47;;
47778;SDS011;33538;48.432;11.350;2023-04-12T14:47:37;0.88;;;0.38;;
47778;SDS011;33538;48.432;11.350;2023-04-12T14:50:04;0.40;;;0.40;;
47778;SDS011;33538;48.432;11.350;2023-04-12T14:52:32;0.45;;;0.35;;